UTA134 UWKD-UWUU
Flight info
| Callsign | UTA134 |
|---|---|
| Flight time | 1h 10m |
| Altitude | 15000 |
| Route | N0240F150 INTAR T788 NAMUD L994 DILUP |
| Aircraft | AN24/M-I/L |
Departure
| Time | 2026-04-23 08:22 |
|---|---|
| Airport | Kazan International Airport (UWKD) |
Arrival
| Time | 2026-04-23 09:32 |
|---|---|
| Airport | Ufa International Airport (UWUU) |
| Time | Latitude | Longitude | Altitude | Speed | Heading |
|---|---|---|---|---|---|
| 2026-04-23 07:41 | 55.60709 | 49.29597 | 423 ft | 0 kts | 35° |
| 2026-04-23 08:14 | 55.60709 | 49.29598 | 423 ft | 0 kts | 35° |
| 2026-04-23 08:15 | 55.60712 | 49.29601 | 423 ft | 2 kts | 36° |
| 2026-04-23 08:15 | 55.60760 | 49.29613 | 423 ft | 9 kts | 315° |
| 2026-04-23 08:15 | 55.60808 | 49.29495 | 423 ft | 16 kts | 301° |
| 2026-04-23 08:15 | 55.60765 | 49.29369 | 423 ft | 17 kts | 212° |
| 2026-04-23 08:16 | 55.60667 | 49.29247 | 423 ft | 14 kts | 213° |
| 2026-04-23 08:16 | 55.60590 | 49.29136 | 423 ft | 17 kts | 237° |
| 2026-04-23 08:16 | 55.60581 | 49.28939 | 423 ft | 20 kts | 273° |
| 2026-04-23 08:16 | 55.60591 | 49.28694 | 423 ft | 17 kts | 276° |
| 2026-04-23 08:17 | 55.60652 | 49.28461 | 423 ft | 21 kts | 304° |
| 2026-04-23 08:17 | 55.60763 | 49.28175 | 423 ft | 27 kts | 308° |
| 2026-04-23 08:17 | 55.60862 | 49.27921 | 423 ft | 23 kts | 302° |
| 2026-04-23 08:17 | 55.60974 | 49.27631 | 423 ft | 27 kts | 304° |
| 2026-04-23 08:18 | 55.61073 | 49.27379 | 423 ft | 22 kts | 304° |
| 2026-04-23 08:18 | 55.61165 | 49.27140 | 423 ft | 23 kts | 303° |
| 2026-04-23 08:18 | 55.61208 | 49.26912 | 423 ft | 17 kts | 221° |
| 2026-04-23 08:18 | 55.61121 | 49.26807 | 423 ft | 14 kts | 216° |
| 2026-04-23 08:19 | 55.61029 | 49.26832 | 423 ft | 13 kts | 124° |
| 2026-04-23 08:19 | 55.60988 | 49.26940 | 423 ft | 6 kts | 124° |
| 2026-04-23 08:19 | 55.60982 | 49.26954 | 423 ft | 0 kts | 124° |
| 2026-04-23 08:20 | 55.60981 | 49.26956 | 423 ft | 5 kts | 124° |
| 2026-04-23 08:21 | 55.60811 | 49.27403 | 423 ft | 77 kts | 125° |
| 2026-04-23 08:21 | 55.60412 | 49.28431 | 428 ft | 119 kts | 126° |
| 2026-04-23 08:21 | 55.59901 | 49.29698 | 609 ft | 136 kts | 130° |
| 2026-04-23 08:21 | 55.59298 | 49.31083 | 892 ft | 147 kts | 130° |
| 2026-04-23 08:22 | 55.58626 | 49.32582 | 1081 ft | 165 kts | 131° |
| 2026-04-23 08:22 | 55.57896 | 49.34212 | 1398 ft | 171 kts | 129° |
| 2026-04-23 08:22 | 55.57157 | 49.35888 | 1765 ft | 174 kts | 130° |
| 2026-04-23 08:22 | 55.56446 | 49.37532 | 2209 ft | 168 kts | 130° |
| 2026-04-23 08:23 | 55.55718 | 49.39220 | 2426 ft | 177 kts | 130° |
| 2026-04-23 08:23 | 55.54839 | 49.40709 | 2702 ft | 177 kts | 148° |
| 2026-04-23 08:23 | 55.53772 | 49.41747 | 3072 ft | 173 kts | 154° |
| 2026-04-23 08:23 | 55.52722 | 49.42764 | 3387 ft | 175 kts | 152° |
| 2026-04-23 08:24 | 55.51663 | 49.43895 | 3631 ft | 180 kts | 151° |
| 2026-04-23 08:24 | 55.50598 | 49.45016 | 3967 ft | 178 kts | 152° |
| 2026-04-23 08:24 | 55.49531 | 49.46118 | 4288 ft | 179 kts | 153° |
| 2026-04-23 08:24 | 55.48441 | 49.47196 | 4528 ft | 182 kts | 153° |
| 2026-04-23 08:25 | 55.47332 | 49.48295 | 4821 ft | 183 kts | 153° |
| 2026-04-23 08:25 | 55.46267 | 49.49478 | 5115 ft | 185 kts | 144° |
| 2026-04-23 08:25 | 55.45329 | 49.51084 | 5349 ft | 190 kts | 135° |
| 2026-04-23 08:25 | 55.44434 | 49.52764 | 5758 ft | 184 kts | 135° |
| 2026-04-23 08:26 | 55.43564 | 49.54391 | 6032 ft | 186 kts | 135° |
| 2026-04-23 08:26 | 55.42679 | 49.56059 | 6254 ft | 190 kts | 135° |
| 2026-04-23 08:26 | 55.41792 | 49.57786 | 6619 ft | 186 kts | 134° |
| 2026-04-23 08:26 | 55.40940 | 49.59469 | 6909 ft | 187 kts | 134° |
| 2026-04-23 08:27 | 55.40062 | 49.61165 | 7125 ft | 191 kts | 135° |
| 2026-04-23 08:27 | 55.39154 | 49.62875 | 7391 ft | 191 kts | 135° |
| 2026-04-23 08:27 | 55.38252 | 49.64592 | 7674 ft | 191 kts | 135° |
| 2026-04-23 08:27 | 55.37367 | 49.66306 | 7935 ft | 192 kts | 135° |
| 2026-04-23 08:28 | 55.36463 | 49.68060 | 8199 ft | 192 kts | 135° |
| 2026-04-23 08:28 | 55.35570 | 49.69792 | 8470 ft | 192 kts | 135° |
| 2026-04-23 08:28 | 55.34677 | 49.71489 | 8747 ft | 191 kts | 136° |
| 2026-04-23 08:28 | 55.33781 | 49.73207 | 8988 ft | 193 kts | 131° |
| 2026-04-23 08:29 | 55.33008 | 49.75157 | 9234 ft | 194 kts | 127° |
| 2026-04-23 08:29 | 55.32267 | 49.77079 | 9576 ft | 188 kts | 126° |
| 2026-04-23 08:29 | 55.31595 | 49.79021 | 9801 ft | 191 kts | 121° |
| 2026-04-23 08:29 | 55.30975 | 49.81115 | 9994 ft | 195 kts | 120° |
| 2026-04-23 08:30 | 55.30344 | 49.83206 | 10231 ft | 194 kts | 119° |
| 2026-04-23 08:30 | 55.29736 | 49.85331 | 10487 ft | 194 kts | 118° |
| 2026-04-23 08:30 | 55.29188 | 49.87486 | 10679 ft | 197 kts | 116° |
| 2026-04-23 08:30 | 55.28626 | 49.89689 | 10917 ft | 197 kts | 116° |
| 2026-04-23 08:31 | 55.28084 | 49.91876 | 11147 ft | 197 kts | 115° |
| 2026-04-23 08:31 | 55.27543 | 49.94085 | 11374 ft | 198 kts | 115° |
| 2026-04-23 08:31 | 55.26998 | 49.96308 | 11604 ft | 198 kts | 115° |
| 2026-04-23 08:31 | 55.26459 | 49.98488 | 11832 ft | 198 kts | 116° |
| 2026-04-23 08:32 | 55.25893 | 50.00684 | 12067 ft | 197 kts | 117° |
| 2026-04-23 08:32 | 55.25325 | 50.02875 | 12290 ft | 197 kts | 117° |
| 2026-04-23 08:32 | 55.24760 | 50.05057 | 12506 ft | 197 kts | 116° |
| 2026-04-23 08:32 | 55.24199 | 50.07220 | 12716 ft | 197 kts | 117° |
| 2026-04-23 08:33 | 55.23639 | 50.09409 | 12927 ft | 198 kts | 116° |
| 2026-04-23 08:33 | 55.23090 | 50.11631 | 13138 ft | 198 kts | 115° |
| 2026-04-23 08:33 | 55.22546 | 50.13823 | 13337 ft | 198 kts | 116° |
| 2026-04-23 08:33 | 55.21993 | 50.16051 | 13538 ft | 198 kts | 116° |
| 2026-04-23 08:34 | 55.21449 | 50.18243 | 13732 ft | 199 kts | 116° |
| 2026-04-23 08:34 | 55.20897 | 50.20458 | 13925 ft | 199 kts | 116° |
| 2026-04-23 08:34 | 55.20343 | 50.22687 | 14120 ft | 199 kts | 116° |
| 2026-04-23 08:34 | 55.19792 | 50.24894 | 14309 ft | 199 kts | 116° |
| 2026-04-23 08:35 | 55.19240 | 50.27107 | 14494 ft | 199 kts | 116° |
| 2026-04-23 08:35 | 55.18679 | 50.29344 | 14544 ft | 207 kts | 116° |
| 2026-04-23 08:35 | 55.18090 | 50.31695 | 14556 ft | 215 kts | 116° |
| 2026-04-23 08:35 | 55.17486 | 50.34111 | 14580 ft | 219 kts | 116° |
| 2026-04-23 08:36 | 55.16871 | 50.36561 | 14589 ft | 223 kts | 116° |
| 2026-04-23 08:36 | 55.16245 | 50.39057 | 14587 ft | 227 kts | 116° |
| 2026-04-23 08:36 | 55.15605 | 50.41605 | 14585 ft | 230 kts | 116° |
| 2026-04-23 08:36 | 55.14957 | 50.44179 | 14578 ft | 233 kts | 116° |
| 2026-04-23 08:37 | 55.14302 | 50.46782 | 14573 ft | 235 kts | 116° |
| 2026-04-23 08:37 | 55.13644 | 50.49387 | 14579 ft | 236 kts | 116° |
| 2026-04-23 08:37 | 55.12984 | 50.52008 | 14586 ft | 238 kts | 116° |
| 2026-04-23 08:37 | 55.12310 | 50.54671 | 14575 ft | 239 kts | 116° |
| 2026-04-23 08:38 | 55.11641 | 50.57317 | 14567 ft | 241 kts | 116° |
| 2026-04-23 08:38 | 55.10962 | 50.59996 | 14572 ft | 241 kts | 116° |
| 2026-04-23 08:38 | 55.10294 | 50.62629 | 14564 ft | 241 kts | 116° |
| 2026-04-23 08:38 | 55.09609 | 50.65332 | 14573 ft | 241 kts | 117° |
| 2026-04-23 08:39 | 55.08928 | 50.68005 | 14567 ft | 241 kts | 117° |
| 2026-04-23 08:39 | 55.08257 | 50.70647 | 14575 ft | 240 kts | 117° |
| 2026-04-23 08:39 | 55.07571 | 50.73339 | 14566 ft | 240 kts | 117° |
| 2026-04-23 08:39 | 55.06898 | 50.75974 | 14555 ft | 240 kts | 117° |
| 2026-04-23 08:40 | 55.06216 | 50.78648 | 14575 ft | 239 kts | 117° |
| 2026-04-23 08:40 | 55.05548 | 50.81264 | 14558 ft | 240 kts | 117° |
| 2026-04-23 08:40 | 55.04863 | 50.83938 | 14558 ft | 239 kts | 117° |
| 2026-04-23 08:40 | 55.04251 | 50.86585 | 14592 ft | 238 kts | 113° |
| 2026-04-23 08:41 | 55.03695 | 50.89338 | 14574 ft | 240 kts | 112° |
| 2026-04-23 08:41 | 55.03152 | 50.92075 | 14551 ft | 241 kts | 112° |
| 2026-04-23 08:41 | 55.02603 | 50.94831 | 14566 ft | 241 kts | 112° |
| 2026-04-23 08:41 | 55.02055 | 50.97583 | 14566 ft | 241 kts | 112° |
| 2026-04-23 08:42 | 55.01510 | 51.00310 | 14567 ft | 241 kts | 112° |
| 2026-04-23 08:42 | 55.00957 | 51.03078 | 14567 ft | 241 kts | 112° |
| 2026-04-23 08:42 | 55.00405 | 51.05835 | 14601 ft | 240 kts | 112° |
| 2026-04-23 08:42 | 54.99862 | 51.08546 | 14593 ft | 240 kts | 112° |
| 2026-04-23 08:43 | 54.99313 | 51.11279 | 14595 ft | 241 kts | 112° |
| 2026-04-23 08:43 | 54.98758 | 51.14039 | 14603 ft | 241 kts | 112° |
| 2026-04-23 08:43 | 54.98200 | 51.16810 | 14574 ft | 242 kts | 112° |
| 2026-04-23 08:43 | 54.97648 | 51.19546 | 14597 ft | 241 kts | 112° |
| 2026-04-23 08:44 | 54.97092 | 51.22301 | 14598 ft | 242 kts | 113° |
| 2026-04-23 08:44 | 54.96537 | 51.25042 | 14562 ft | 243 kts | 113° |
| 2026-04-23 08:44 | 54.95974 | 51.27831 | 14567 ft | 243 kts | 113° |
| 2026-04-23 08:44 | 54.95416 | 51.30578 | 14580 ft | 241 kts | 112° |
| 2026-04-23 08:45 | 54.94859 | 51.33326 | 14604 ft | 241 kts | 113° |
| 2026-04-23 08:45 | 54.94300 | 51.36072 | 14572 ft | 243 kts | 113° |
| 2026-04-23 08:45 | 54.93736 | 51.38840 | 14584 ft | 243 kts | 113° |
| 2026-04-23 08:45 | 54.93181 | 51.41563 | 14567 ft | 243 kts | 113° |
| 2026-04-23 08:46 | 54.92616 | 51.44333 | 14598 ft | 241 kts | 113° |
| 2026-04-23 08:46 | 54.92060 | 51.47058 | 14595 ft | 241 kts | 113° |
| 2026-04-23 08:46 | 54.91494 | 51.49823 | 14588 ft | 242 kts | 113° |
| 2026-04-23 08:46 | 54.90930 | 51.52574 | 14579 ft | 242 kts | 113° |
| 2026-04-23 08:47 | 54.90369 | 51.55309 | 14596 ft | 242 kts | 113° |
| 2026-04-23 08:47 | 54.89802 | 51.58070 | 14602 ft | 242 kts | 113° |
| 2026-04-23 08:47 | 54.89257 | 51.60716 | 14596 ft | 243 kts | 113° |
| 2026-04-23 08:47 | 54.88682 | 51.63504 | 14566 ft | 244 kts | 114° |
| 2026-04-23 08:48 | 54.88113 | 51.66262 | 14555 ft | 244 kts | 114° |
| 2026-04-23 08:48 | 54.87544 | 51.69019 | 14623 ft | 241 kts | 115° |
| 2026-04-23 08:48 | 54.86981 | 51.71738 | 14582 ft | 243 kts | 115° |
| 2026-04-23 08:48 | 54.86400 | 51.74533 | 14522 ft | 245 kts | 115° |
| 2026-04-23 08:49 | 54.85836 | 51.77264 | 14628 ft | 241 kts | 115° |
| 2026-04-23 08:49 | 54.85270 | 51.79991 | 14608 ft | 242 kts | 114° |
| 2026-04-23 08:49 | 54.84692 | 51.82770 | 14529 ft | 245 kts | 115° |
| 2026-04-23 08:49 | 54.84123 | 51.85502 | 14614 ft | 241 kts | 114° |
| 2026-04-23 08:50 | 54.83559 | 51.88213 | 14643 ft | 240 kts | 114° |
| 2026-04-23 08:50 | 54.82986 | 51.90954 | 14528 ft | 245 kts | 114° |
| 2026-04-23 08:50 | 54.82404 | 51.93733 | 14592 ft | 241 kts | 114° |
| 2026-04-23 08:50 | 54.81839 | 51.96444 | 14657 ft | 239 kts | 114° |
| 2026-04-23 08:51 | 54.81268 | 51.99162 | 14555 ft | 243 kts | 114° |
| 2026-04-23 08:51 | 54.80690 | 52.01911 | 14557 ft | 242 kts | 114° |
| 2026-04-23 08:51 | 54.80123 | 52.04614 | 14639 ft | 239 kts | 115° |
| 2026-04-23 08:51 | 54.79547 | 52.07349 | 14567 ft | 242 kts | 115° |
| 2026-04-23 08:52 | 54.78967 | 52.10095 | 14538 ft | 243 kts | 115° |
| 2026-04-23 08:52 | 54.78401 | 52.12781 | 14625 ft | 239 kts | 115° |
| 2026-04-23 08:52 | 54.77831 | 52.15484 | 14579 ft | 242 kts | 115° |
| 2026-04-23 08:52 | 54.77243 | 52.18252 | 14524 ft | 244 kts | 115° |
| 2026-04-23 08:53 | 54.76669 | 52.20965 | 14617 ft | 239 kts | 115° |
| 2026-04-23 08:53 | 54.76099 | 52.23661 | 14611 ft | 240 kts | 115° |
| 2026-04-23 08:53 | 54.75519 | 52.26379 | 14536 ft | 244 kts | 115° |
| 2026-04-23 08:53 | 54.74933 | 52.29128 | 14578 ft | 241 kts | 115° |
| 2026-04-23 08:54 | 54.74356 | 52.31845 | 14645 ft | 239 kts | 114° |
| 2026-04-23 08:54 | 54.73779 | 52.34555 | 14567 ft | 243 kts | 114° |
| 2026-04-23 08:54 | 54.73188 | 52.37302 | 14537 ft | 244 kts | 114° |
| 2026-04-23 08:54 | 54.72608 | 52.40019 | 14615 ft | 240 kts | 114° |
| 2026-04-23 08:55 | 54.72038 | 52.42686 | 14608 ft | 240 kts | 115° |
| 2026-04-23 08:55 | 54.71449 | 52.45417 | 14552 ft | 243 kts | 112° |
| 2026-04-23 08:55 | 54.70867 | 52.48153 | 14575 ft | 242 kts | 113° |
| 2026-04-23 08:55 | 54.70288 | 52.50845 | 14621 ft | 240 kts | 115° |
| 2026-04-23 08:56 | 54.69692 | 52.53581 | 14576 ft | 243 kts | 114° |
| 2026-04-23 08:56 | 54.69107 | 52.56309 | 14549 ft | 243 kts | 114° |
| 2026-04-23 08:56 | 54.68524 | 52.59005 | 14561 ft | 242 kts | 115° |
| 2026-04-23 08:56 | 54.67936 | 52.61730 | 14572 ft | 240 kts | 114° |
| 2026-04-23 08:57 | 54.67344 | 52.64429 | 14577 ft | 241 kts | 114° |
| 2026-04-23 08:57 | 54.66765 | 52.67120 | 14554 ft | 241 kts | 116° |
| 2026-04-23 08:57 | 54.66174 | 52.69861 | 14569 ft | 241 kts | 116° |
| 2026-04-23 08:57 | 54.65598 | 52.72510 | 14600 ft | 239 kts | 114° |
| 2026-04-23 08:58 | 54.65012 | 52.75220 | 14595 ft | 240 kts | 115° |
| 2026-04-23 08:58 | 54.64422 | 52.77913 | 14577 ft | 242 kts | 115° |
| 2026-04-23 08:58 | 54.63847 | 52.80639 | 14566 ft | 240 kts | 111° |
| 2026-04-23 08:58 | 54.63393 | 52.83387 | 14613 ft | 239 kts | 108° |
| 2026-04-23 08:59 | 54.62979 | 52.86149 | 14603 ft | 241 kts | 109° |
| 2026-04-23 08:59 | 54.62552 | 52.88970 | 14515 ft | 244 kts | 108° |
| 2026-04-23 08:59 | 54.62119 | 52.91787 | 14590 ft | 242 kts | 108° |
| 2026-04-23 08:59 | 54.61691 | 52.94597 | 14580 ft | 241 kts | 109° |
| 2026-04-23 09:00 | 54.61269 | 52.97377 | 14604 ft | 241 kts | 109° |
| 2026-04-23 09:00 | 54.60839 | 53.00181 | 14586 ft | 242 kts | 109° |
| 2026-04-23 09:00 | 54.60408 | 53.02985 | 14579 ft | 243 kts | 108° |
| 2026-04-23 09:00 | 54.59982 | 53.05756 | 14583 ft | 242 kts | 109° |
| 2026-04-23 09:01 | 54.59549 | 53.08574 | 14587 ft | 241 kts | 109° |
| 2026-04-23 09:01 | 54.59121 | 53.11372 | 14597 ft | 241 kts | 108° |
| 2026-04-23 09:01 | 54.58688 | 53.14160 | 14596 ft | 242 kts | 108° |
| 2026-04-23 09:01 | 54.58257 | 53.16950 | 14568 ft | 243 kts | 107° |
| 2026-04-23 09:02 | 54.57825 | 53.19740 | 14582 ft | 242 kts | 108° |
| 2026-04-23 09:02 | 54.57388 | 53.22518 | 14604 ft | 241 kts | 107° |
| 2026-04-23 09:02 | 54.56960 | 53.25302 | 14611 ft | 242 kts | 107° |
| 2026-04-23 09:02 | 54.56516 | 53.28120 | 14566 ft | 244 kts | 108° |
| 2026-04-23 09:03 | 54.56085 | 53.30913 | 14568 ft | 243 kts | 109° |
| 2026-04-23 09:03 | 54.55639 | 53.33746 | 14609 ft | 242 kts | 108° |
| 2026-04-23 09:03 | 54.55205 | 53.36512 | 14615 ft | 242 kts | 109° |
| 2026-04-23 09:03 | 54.54767 | 53.39323 | 14530 ft | 246 kts | 108° |
| 2026-04-23 09:04 | 54.54321 | 53.42151 | 14614 ft | 242 kts | 108° |
| 2026-04-23 09:04 | 54.53888 | 53.44920 | 14642 ft | 241 kts | 108° |
| 2026-04-23 09:04 | 54.53443 | 53.47744 | 14551 ft | 245 kts | 108° |
| 2026-04-23 09:04 | 54.52998 | 53.50564 | 14599 ft | 243 kts | 109° |
| 2026-04-23 09:05 | 54.52558 | 53.53342 | 14634 ft | 242 kts | 108° |
| 2026-04-23 09:05 | 54.52116 | 53.56132 | 14527 ft | 247 kts | 109° |
| 2026-04-23 09:05 | 54.51657 | 53.58994 | 14575 ft | 244 kts | 108° |
| 2026-04-23 09:05 | 54.51221 | 53.61762 | 14655 ft | 240 kts | 109° |
| 2026-04-23 09:06 | 54.50775 | 53.64550 | 14570 ft | 245 kts | 108° |
| 2026-04-23 09:06 | 54.50320 | 53.67392 | 14549 ft | 246 kts | 109° |
| 2026-04-23 09:06 | 54.49874 | 53.70180 | 14643 ft | 242 kts | 109° |
| 2026-04-23 09:06 | 54.49431 | 53.72955 | 14586 ft | 244 kts | 109° |
| 2026-04-23 09:07 | 54.48973 | 53.75814 | 14533 ft | 247 kts | 109° |
| 2026-04-23 09:07 | 54.48523 | 53.78629 | 14626 ft | 242 kts | 109° |
| 2026-04-23 09:07 | 54.48083 | 53.81366 | 14619 ft | 243 kts | 109° |
| 2026-04-23 09:07 | 54.47625 | 53.84215 | 14550 ft | 246 kts | 109° |
| 2026-04-23 09:08 | 54.47172 | 53.87024 | 14589 ft | 243 kts | 109° |
| 2026-04-23 09:08 | 54.46723 | 53.89813 | 14647 ft | 241 kts | 109° |
| 2026-04-23 09:08 | 54.46276 | 53.92588 | 14559 ft | 245 kts | 109° |
| 2026-04-23 09:08 | 54.45816 | 53.95412 | 14535 ft | 245 kts | 109° |
| 2026-04-23 09:09 | 54.45364 | 53.98207 | 14637 ft | 241 kts | 108° |
| 2026-04-23 09:09 | 54.44913 | 54.00975 | 14611 ft | 243 kts | 109° |
| 2026-04-23 09:09 | 54.44452 | 54.03785 | 14565 ft | 245 kts | 109° |
| 2026-04-23 09:09 | 54.43996 | 54.06575 | 14567 ft | 245 kts | 109° |
| 2026-04-23 09:10 | 54.43542 | 54.09358 | 14635 ft | 241 kts | 109° |
| 2026-04-23 09:10 | 54.42612 | 54.14949 | 14531 ft | 246 kts | 109° |
| 2026-04-23 09:10 | 54.42136 | 54.17752 | 14612 ft | 242 kts | 110° |
| 2026-04-23 09:11 | 54.41672 | 54.20493 | 14603 ft | 243 kts | 109° |
| 2026-04-23 09:11 | 54.41190 | 54.23320 | 14519 ft | 246 kts | 109° |
| 2026-04-23 09:11 | 54.40713 | 54.26123 | 14617 ft | 242 kts | 109° |
| 2026-04-23 09:11 | 54.40247 | 54.28883 | 14612 ft | 243 kts | 110° |
| 2026-04-23 09:12 | 54.39766 | 54.31672 | 14541 ft | 246 kts | 109° |
| 2026-04-23 09:12 | 54.39294 | 54.34436 | 14603 ft | 242 kts | 109° |
| 2026-04-23 09:12 | 54.38836 | 54.37204 | 14624 ft | 242 kts | 106° |
| 2026-04-23 09:12 | 54.38676 | 54.40097 | 14576 ft | 248 kts | 91° |
| 2026-04-23 09:13 | 54.38782 | 54.43063 | 14519 ft | 250 kts | 87° |
| 2026-04-23 09:13 | 54.38922 | 54.46010 | 14609 ft | 247 kts | 87° |
| 2026-04-23 09:13 | 54.39061 | 54.48946 | 14622 ft | 247 kts | 88° |
| 2026-04-23 09:13 | 54.39197 | 54.51910 | 14537 ft | 250 kts | 88° |
| 2026-04-23 09:14 | 54.39357 | 54.54844 | 14589 ft | 248 kts | 85° |
| 2026-04-23 09:14 | 54.39570 | 54.57754 | 14625 ft | 247 kts | 84° |
| 2026-04-23 09:14 | 54.39795 | 54.60715 | 14544 ft | 250 kts | 84° |
| 2026-04-23 09:14 | 54.40019 | 54.63668 | 14583 ft | 249 kts | 84° |
| 2026-04-23 09:15 | 54.40239 | 54.66589 | 14631 ft | 247 kts | 85° |
| 2026-04-23 09:15 | 54.40458 | 54.69518 | 14547 ft | 251 kts | 85° |
| 2026-04-23 09:15 | 54.40679 | 54.72491 | 14561 ft | 250 kts | 85° |
| 2026-04-23 09:15 | 54.40898 | 54.75403 | 14634 ft | 247 kts | 85° |
| 2026-04-23 09:16 | 54.41117 | 54.78327 | 14593 ft | 249 kts | 85° |
| 2026-04-23 09:16 | 54.41336 | 54.81295 | 14531 ft | 251 kts | 85° |
| 2026-04-23 09:16 | 54.41554 | 54.84252 | 14626 ft | 247 kts | 85° |
| 2026-04-23 09:16 | 54.41768 | 54.87162 | 14607 ft | 249 kts | 85° |
| 2026-04-23 09:17 | 54.41984 | 54.90126 | 14541 ft | 251 kts | 85° |
| 2026-04-23 09:17 | 54.42204 | 54.93058 | 14620 ft | 247 kts | 84° |
| 2026-04-23 09:17 | 54.42464 | 54.95954 | 14695 ft | 245 kts | 83° |
| 2026-04-23 09:17 | 54.42748 | 54.98804 | 14450 ft | 241 kts | 82° |
| 2026-04-23 09:18 | 54.43087 | 55.01620 | 14049 ft | 240 kts | 79° |
| 2026-04-23 09:18 | 54.43481 | 55.04414 | 13546 ft | 243 kts | 78° |
| 2026-04-23 09:18 | 54.43891 | 55.07169 | 13222 ft | 238 kts | 77° |
| 2026-04-23 09:18 | 54.44314 | 55.09871 | 12908 ft | 233 kts | 76° |
| 2026-04-23 09:19 | 54.44747 | 55.12542 | 12557 ft | 230 kts | 76° |
| 2026-04-23 09:19 | 54.45141 | 55.15171 | 12147 ft | 230 kts | 78° |
| 2026-04-23 09:19 | 54.45533 | 55.17845 | 11760 ft | 230 kts | 77° |
| 2026-04-23 09:19 | 54.45896 | 55.20501 | 11404 ft | 227 kts | 79° |
| 2026-04-23 09:20 | 54.46239 | 55.23121 | 11036 ft | 226 kts | 79° |
| 2026-04-23 09:20 | 54.46568 | 55.25730 | 10669 ft | 225 kts | 80° |
| 2026-04-23 09:20 | 54.46855 | 55.28373 | 10307 ft | 223 kts | 81° |
| 2026-04-23 09:20 | 54.47143 | 55.30962 | 9953 ft | 222 kts | 81° |
| 2026-04-23 09:21 | 54.47431 | 55.33546 | 9576 ft | 221 kts | 81° |
| 2026-04-23 09:21 | 54.47716 | 55.36139 | 9202 ft | 221 kts | 81° |
| 2026-04-23 09:21 | 54.48024 | 55.38690 | 8845 ft | 220 kts | 79° |
| 2026-04-23 09:21 | 54.48365 | 55.41230 | 8490 ft | 219 kts | 79° |
| 2026-04-23 09:22 | 54.48718 | 55.43776 | 8128 ft | 218 kts | 78° |
| 2026-04-23 09:22 | 54.49083 | 55.46274 | 7764 ft | 217 kts | 77° |
| 2026-04-23 09:22 | 54.49656 | 55.48687 | 7394 ft | 218 kts | 58° |
| 2026-04-23 09:22 | 54.50685 | 55.50518 | 7123 ft | 213 kts | 32° |
| 2026-04-23 09:23 | 54.51993 | 55.51544 | 6918 ft | 203 kts | 9° |
| 2026-04-23 09:23 | 54.53365 | 55.51542 | 6571 ft | 201 kts | 345° |
| 2026-04-23 09:23 | 54.54767 | 55.51237 | 6303 ft | 207 kts | 351° |
| 2026-04-23 09:23 | 54.56211 | 55.51104 | 6188 ft | 201 kts | 355° |
| 2026-04-23 09:24 | 54.57584 | 55.51242 | 6055 ft | 199 kts | 5° |
| 2026-04-23 09:24 | 54.58954 | 55.51795 | 5726 ft | 206 kts | 13° |
| 2026-04-23 09:24 | 54.60316 | 55.52552 | 5485 ft | 207 kts | 15° |
| 2026-04-23 09:24 | 54.61676 | 55.53406 | 5207 ft | 208 kts | 19° |
| 2026-04-23 09:25 | 54.63022 | 55.54299 | 4875 ft | 207 kts | 20° |
| 2026-04-23 09:25 | 54.64317 | 55.55339 | 4593 ft | 205 kts | 28° |
| 2026-04-23 09:25 | 54.65486 | 55.56628 | 4320 ft | 201 kts | 33° |
| 2026-04-23 09:25 | 54.66635 | 55.58018 | 3901 ft | 207 kts | 36° |
| 2026-04-23 09:26 | 54.67778 | 55.59568 | 3554 ft | 206 kts | 39° |
| 2026-04-23 09:26 | 54.68811 | 55.61214 | 3295 ft | 201 kts | 50° |
| 2026-04-23 09:26 | 54.69452 | 55.63248 | 3091 ft | 190 kts | 78° |
| 2026-04-23 09:26 | 54.69478 | 55.65454 | 2849 ft | 182 kts | 107° |
| 2026-04-23 09:27 | 54.69249 | 55.67582 | 2803 ft | 175 kts | 106° |
| 2026-04-23 09:27 | 54.69040 | 55.69524 | 2839 ft | 156 kts | 112° |
| 2026-04-23 09:27 | 54.68532 | 55.71186 | 2655 ft | 156 kts | 138° |
| 2026-04-23 09:27 | 54.67790 | 55.72501 | 2634 ft | 153 kts | 144° |
| 2026-04-23 09:28 | 54.66988 | 55.73703 | 2596 ft | 151 kts | 147° |
| 2026-04-23 09:28 | 54.66234 | 55.74878 | 2640 ft | 143 kts | 145° |
| 2026-04-23 09:28 | 54.65467 | 55.75954 | 2495 ft | 141 kts | 152° |
| 2026-04-23 09:28 | 54.64673 | 55.76912 | 2324 ft | 136 kts | 153° |
| 2026-04-23 09:29 | 54.63915 | 55.77851 | 2083 ft | 135 kts | 151° |
| 2026-04-23 09:29 | 54.63171 | 55.78788 | 1882 ft | 127 kts | 152° |
| 2026-04-23 09:29 | 54.62472 | 55.79679 | 1668 ft | 124 kts | 150° |
| 2026-04-23 09:29 | 54.61796 | 55.80578 | 1452 ft | 121 kts | 151° |
| 2026-04-23 09:30 | 54.61122 | 55.81411 | 1266 ft | 117 kts | 152° |
| 2026-04-23 09:30 | 54.60432 | 55.82126 | 1057 ft | 115 kts | 159° |
| 2026-04-23 09:30 | 54.59718 | 55.82725 | 927 ft | 113 kts | 160° |
| 2026-04-23 09:30 | 54.59010 | 55.83357 | 753 ft | 118 kts | 157° |
| 2026-04-23 09:31 | 54.58302 | 55.84035 | 617 ft | 115 kts | 157° |
| 2026-04-23 09:31 | 54.57583 | 55.84681 | 446 ft | 116 kts | 156° |
| 2026-04-23 09:31 | 54.56922 | 55.85306 | 380 ft | 94 kts | 152° |
| 2026-04-23 09:31 | 54.56498 | 55.85723 | 393 ft | 50 kts | 150° |
| 2026-04-23 09:32 | 54.56265 | 55.85943 | 400 ft | 30 kts | 151° |
| 2026-04-23 09:32 | 54.56070 | 55.86135 | 407 ft | 34 kts | 152° |
| 2026-04-23 09:32 | 54.55890 | 55.86308 | 412 ft | 21 kts | 152° |
| 2026-04-23 09:32 | 54.55853 | 55.86445 | 413 ft | 12 kts | 61° |
| 2026-04-23 09:33 | 54.55931 | 55.86680 | 412 ft | 25 kts | 60° |
| 2026-04-23 09:33 | 54.56010 | 55.86921 | 410 ft | 21 kts | 59° |
| 2026-04-23 09:33 | 54.56078 | 55.87138 | 404 ft | 20 kts | 58° |
| 2026-04-23 09:33 | 54.56150 | 55.87344 | 397 ft | 19 kts | 58° |
| 2026-04-23 09:34 | 54.56212 | 55.87540 | 392 ft | 17 kts | 58° |
| 2026-04-23 09:34 | 54.56289 | 55.87783 | 384 ft | 26 kts | 59° |
| 2026-04-23 09:34 | 54.56380 | 55.88038 | 380 ft | 23 kts | 64° |
| 2026-04-23 09:34 | 54.56399 | 55.88258 | 381 ft | 17 kts | 143° |
| 2026-04-23 09:35 | 54.56306 | 55.88350 | 383 ft | 19 kts | 151° |
| 2026-04-23 09:35 | 54.56192 | 55.88460 | 385 ft | 17 kts | 151° |
| 2026-04-23 09:35 | 54.56101 | 55.88547 | 386 ft | 12 kts | 149° |
| 2026-04-23 09:35 | 54.56098 | 55.88638 | 388 ft | 6 kts | 60° |
| 2026-04-23 09:36 | 54.56112 | 55.88678 | 390 ft | 0 kts | 59° |